Time;durP1;ratioP1;P1;durP2;ratioP2;P2;SDS_P1;SDS_P2;PMS_P1;PMS_P2;Temp;Humidity;BMP_temperature;BMP_pressure;BME280_temperature;BME280_humidity;BME280_pressure;Samples;Min_cycle;Max_cycle;Signal;HPM_P1;HPM_P2
2022/01/08 00:00:12;;;;;;;;;0.00;0.00;;;;;7.85;61.44;101359.84;6312312;22;45357;-89
2022/01/08 00:02:38;;;;;;;;;0.00;0.00;;;;;7.85;61.87;101352.00;6340701;22;45143;-88
2022/01/08 00:05:03;;;;;;;;;0.00;0.00;;;;;7.80;61.81;101349.44;6339862;22;45468;-89
2022/01/08 00:07:29;;;;;;;;;0.00;0.00;;;;;7.78;61.30;101347.72;6340465;22;45195;-88
2022/01/08 00:09:54;;;;;;;;;0.00;0.00;;;;;7.75;61.63;101361.69;6340721;22;45191;-89
2022/01/08 00:12:20;;;;;;;;;0.00;0.00;;;;;7.70;61.37;101368.72;6340744;22;45293;-89
2022/01/08 00:14:45;;;;;;;;;0.00;0.00;;;;;7.68;61.83;101378.34;6340267;22;45229;-89
2022/01/08 00:17:11;;;;;;;;;0.00;0.00;;;;;7.59;61.94;101382.78;6340361;22;45478;-90
2022/01/08 00:19:36;;;;;;;;;1.00;0.00;;;;;7.58;61.68;101385.41;6340217;22;45226;-89
2022/01/08 00:22:02;;;;;;;;;2.75;0.00;;;;;7.57;62.03;101400.25;6311982;22;45218;-88
2022/01/08 00:24:27;;;;;;;;;1.00;1.00;;;;;7.56;61.89;101403.72;6341437;22;45475;-87
2022/01/08 00:26:53;;;;;;;;;0.00;0.00;;;;;7.56;61.56;101402.84;6341950;22;45516;-87
2022/01/08 00:29:18;;;;;;;;;0.50;0.50;;;;;7.58;62.08;101401.97;6341890;22;45299;-87
2022/01/08 00:31:44;;;;;;;;;0.00;0.00;;;;;7.60;61.77;101404.59;6342216;22;45386;-84
2022/01/08 00:34:09;;;;;;;;;0.00;0.00;;;;;7.54;61.80;101410.72;6341416;22;45349;-87
2022/01/08 00:36:34;;;;;;;;;0.00;0.00;;;;;7.51;61.34;101411.63;6313046;22;47133;-88
2022/01/08 00:39:00;;;;;;;;;0.00;0.00;;;;;7.47;61.87;101420.38;6341812;22;45236;-87
2022/01/08 00:41:25;;;;;;;;;0.00;0.00;;;;;7.43;61.89;101413.47;6341961;22;45250;-85
2022/01/08 00:43:51;;;;;;;;;0.00;0.00;;;;;7.37;61.73;101414.38;6341482;22;45321;-83
2022/01/08 00:46:17;;;;;;;;;0.00;0.00;;;;;7.35;62.09;101415.25;6341939;22;45278;-83
2022/01/08 00:48:44;;;;;;;;;0.00;0.00;;;;;7.36;62.16;101423.09;6341661;22;45164;-83
2022/01/08 00:51:09;;;;;;;;;0.75;0.00;;;;;7.32;62.04;101437.06;6313339;22;45231;-84
2022/01/08 00:53:35;;;;;;;;;0.00;0.00;;;;;7.29;62.34;101442.31;6341575;22;45528;-85
2022/01/08 00:56:00;;;;;;;;;0.00;0.00;;;;;7.32;62.24;101450.16;6341729;22;46262;-85
2022/01/08 00:58:26;;;;;;;;;0.00;0.00;;;;;7.32;62.33;101453.66;6313298;22;45117;-84
2022/01/08 01:00:51;;;;;;;;;0.00;0.00;;;;;7.32;62.12;101455.38;6342006;22;45472;-85
2022/01/08 01:03:16;;;;;;;;;0.00;0.00;;;;;7.35;62.86;101462.34;6341436;22;45300;-86
2022/01/08 01:05:42;;;;;;;;;0.00;0.00;;;;;7.36;62.77;101461.47;6341420;22;46182;-83
2022/01/08 01:08:07;;;;;;;;;1.25;1.25;;;;;7.37;62.55;101457.97;6341639;22;45414;-83
2022/01/08 01:10:33;;;;;;;;;0.75;0.75;;;;;7.39;62.58;101464.91;6341697;22;45920;-87
2022/01/08 01:12:58;;;;;;;;;0.00;0.00;;;;;7.44;62.61;101470.09;6341000;22;45401;-86
2022/01/08 01:15:23;;;;;;;;;1.00;1.00;;;;;7.38;62.93;101471.00;6341181;22;45360;-86
2022/01/08 01:17:49;;;;;;;;;1.00;0.50;;;;;7.37;62.54;101466.69;6341194;22;45365;-87
2022/01/08 01:20:16;;;;;;;;;1.00;0.50;;;;;7.36;63.26;101471.94;6313110;22;45582;-87
2022/01/08 01:22:50;;;;;;;;;1.75;1.00;;;;;7.40;63.33;101477.13;6341238;22;45286;-87
2022/01/08 01:25:21;;;;;;;;;1.75;1.75;;;;;7.39;62.93;101466.66;6312990;22;46958;-90
2022/01/08 01:30:17;;;;;;;;;0.75;0.00;;;;;7.36;62.57;101472.78;6341530;22;45101;-90
2022/01/08 01:48:48;;;;;;;;;0.00;0.00;;;;;7.42;62.02;101459.66;6341048;22;45260;-84
2022/01/08 01:51:22;;;;;;;;;1.50;0.75;;;;;7.42;62.04;101459.66;6341647;22;45331;-87
2022/01/08 01:53:49;;;;;;;;;2.00;1.00;;;;;7.45;62.24;101468.38;6341167;22;45326;-88
2022/01/08 01:56:16;;;;;;;;;0.00;0.00;;;;;7.46;62.31;101468.34;6341498;22;46137;-94
2022/01/08 01:58:41;;;;;;;;;1.00;1.00;;;;;7.47;62.13;101477.94;6313722;22;45816;-93
2022/01/08 02:01:07;;;;;;;;;2.50;0.50;;;;;7.45;62.40;101477.09;6342583;22;45283;-87
2022/01/08 02:03:32;;;;;;;;;0.75;0.75;;;;;7.45;61.94;101479.69;6340653;22;45456;-87
2022/01/08 02:05:58;;;;;;;;;3.50;1.00;;;;;7.46;62.19;101470.97;6340626;22;46233;-86
2022/01/08 02:08:23;;;;;;;;;1.00;0.75;;;;;7.47;62.18;101472.72;6341177;22;45186;-86
2022/01/08 02:10:48;;;;;;;;;1.00;1.00;;;;;7.46;61.71;101472.72;6341746;22;45117;-89
2022/01/08 02:13:24;;;;;;;;;1.25;1.00;;;;;7.49;62.21;101459.59;6312987;22;46943;-84
2022/01/08 02:15:52;;;;;;;;;3.00;2.00;;;;;7.47;62.11;101469.22;6340757;22;45246;-84
2022/01/08 02:18:23;;;;;;;;;1.00;1.00;;;;;7.46;61.93;101464.88;6340776;22;45255;-86
2022/01/08 02:20:48;;;;;;;;;1.00;1.00;;;;;7.43;61.86;101471.00;6313240;22;45180;-80
2022/01/08 02:23:14;;;;;;;;;1.00;1.00;;;;;7.42;62.07;101479.72;6340948;22;45409;-83
2022/01/08 02:25:39;;;;;;;;;1.25;1.00;;;;;7.42;61.90;101483.22;6341483;22;45228;-87
2022/01/08 02:28:05;;;;;;;;;1.25;1.00;;;;;7.36;61.85;101487.63;6341170;22;45078;-88
2022/01/08 02:30:31;;;;;;;;;1.00;1.00;;;;;7.34;61.62;101490.22;6341803;22;45384;-92
2022/01/08 02:32:56;;;;;;;;;2.25;1.25;;;;;7.31;61.93;101487.63;6313347;22;46814;-92
2022/01/08 02:35:22;;;;;;;;;0.75;0.75;;;;;7.28;61.46;101483.31;6313610;22;47085;-90
2022/01/08 02:37:49;;;;;;;;;3.00;1.25;;;;;7.31;62.17;101492.88;6341009;22;45199;-89
2022/01/08 02:40:15;;;;;;;;;3.00;1.75;;;;;7.28;62.39;101490.28;6343090;22;45237;-96
2022/01/08 02:42:50;;;;;;;;;2.00;2.00;;;;;7.24;62.06;101499.00;6314265;22;45723;-90
2022/01/08 02:45:17;;;;;;;;;2.00;2.00;;;;;7.23;62.40;101495.56;6312955;22;46973;-90
2022/01/08 02:47:43;;;;;;;;;1.00;1.00;;;;;7.18;61.98;101494.72;6341003;22;45229;-90
2022/01/08 02:50:10;;;;;;;;;2.00;2.00;;;;;7.17;62.09;101496.44;6312792;22;45452;-90
2022/01/08 02:52:41;;;;;;;;;0.75;0.75;;;;;7.12;62.11;101487.78;6341286;22;45251;-89
2022/01/08 02:55:07;;;;;;;;;1.00;1.00;;;;;7.13;62.51;101492.13;6341140;22;45542;-93
2022/01/08 02:57:33;;;;;;;;;1.00;1.00;;;;;7.11;62.33;101499.13;6313152;22;45406;-91
2022/01/08 02:59:58;;;;;;;;;2.50;1.00;;;;;7.07;63.04;101497.38;6312741;22;45240;-92
2022/01/08 03:02:24;;;;;;;;;0.50;0.50;;;;;7.05;62.38;101506.97;6341345;22;45342;-92
2022/01/08 03:04:49;;;;;;;;;1.00;1.00;;;;;7.03;62.92;101511.34;6312631;22;47067;-93
2022/01/08 03:07:15;;;;;;;;;2.25;1.00;;;;;7.02;62.75;101512.22;6313510;22;45223;-94
2022/01/08 03:09:42;;;;;;;;;2.50;0.00;;;;;6.96;63.11;101506.16;6313245;22;45127;-92
2022/01/08 03:12:09;;;;;;;;;1.00;1.00;;;;;6.96;63.04;101500.91;6313950;22;45922;-95
2022/01/08 03:14:34;;;;;;;;;1.75;1.75;;;;;6.97;62.93;101514.88;6312672;22;47151;-90
2022/01/08 03:16:59;;;;;;;;;1.00;1.00;;;;;6.95;62.92;101503.56;6341145;22;45345;-91
2022/01/08 03:19:25;;;;;;;;;3.00;2.00;;;;;6.92;62.96;101496.59;6312347;22;45427;-88
2022/01/08 03:21:53;;;;;;;;;1.50;0.00;;;;;6.94;63.08;101504.44;6340383;22;45409;-87
2022/01/08 03:24:26;;;;;;;;;1.75;1.00;;;;;6.93;63.11;101500.09;6312326;22;47082;-85
2022/01/08 03:26:52;;;;;;;;;0.50;0.00;;;;;6.90;63.33;101497.47;6341150;22;45212;-85
2022/01/08 03:29:18;;;;;;;;;2.00;0.00;;;;;6.88;63.35;101492.28;6341218;22;45127;-85
2022/01/08 03:31:43;;;;;;;;;1.50;0.75;;;;;6.87;63.27;101485.28;6340985;22;45343;-85
2022/01/08 03:34:09;;;;;;;;;0.50;0.50;;;;;6.87;63.06;101490.53;6341089;22;46237;-86
2022/01/08 03:36:34;;;;;;;;;1.25;1.25;;;;;6.81;62.96;101480.13;6341360;22;45215;-95
2022/01/08 03:39:00;;;;;;;;;1.00;1.00;;;;;6.79;63.56;101476.66;6313582;22;45161;-96
2022/01/08 03:41:26;;;;;;;;;0.00;0.00;;;;;6.77;63.24;101487.09;6314614;22;46114;-96
2022/01/08 03:43:51;;;;;;;;;1.00;0.75;;;;;6.75;63.33;101483.63;6313136;22;47090;-90
2022/01/08 03:46:19;;;;;;;;;2.25;1.00;;;;;6.75;63.03;101499.28;6342828;22;45203;-95
2022/01/08 03:48:48;;;;;;;;;0.00;0.00;;;;;6.66;63.53;101494.13;6321581;22;45358;-96
2022/01/08 03:51:15;;;;;;;;;0.00;0.00;;;;;6.67;63.66;101501.94;6321911;22;46144;-91
2022/01/08 03:53:41;;;;;;;;;1.00;1.00;;;;;6.65;63.40;101498.47;6340967;22;45222;-86
2022/01/08 03:56:07;;;;;;;;;2.00;1.00;;;;;6.63;63.39;101497.59;6341380;22;45156;-93
2022/01/08 03:58:32;;;;;;;;;0.00;0.00;;;;;6.64;63.91;101504.59;6313656;22;45200;-94
2022/01/08 04:00:58;;;;;;;;;1.00;1.00;;;;;6.61;63.58;101497.63;6314978;22;46148;-94
2022/01/08 04:03:23;;;;;;;;;1.00;1.00;;;;;6.57;63.46;101488.03;6313535;22;46871;-89
2022/01/08 04:05:50;;;;;;;;;2.50;1.75;;;;;6.60;63.83;101492.38;6341985;22;45361;-89
2022/01/08 04:08:17;;;;;;;;;2.25;1.25;;;;;6.59;63.43;101490.66;6341613;22;45352;-89
2022/01/08 04:10:42;;;;;;;;;0.75;0.75;;;;;6.57;64.03;101484.59;6342219;22;45247;-92
2022/01/08 04:13:12;;;;;;;;;1.25;1.25;;;;;6.57;63.60;101490.66;6314184;22;47306;-92
2022/01/08 04:15:41;;;;;;;;;1.00;1.00;;;;;6.53;63.79;101502.88;6342269;22;45333;-91
2022/01/08 04:18:07;;;;;;;;;1.00;1.00;;;;;6.56;63.89;101503.72;6341545;22;45228;-80
2022/01/08 04:20:47;;;;;;;;;2.50;1.00;;;;;6.52;63.92;101498.50;6341595;22;45449;-80
2022/01/08 04:23:14;;;;;;;;;0.00;0.00;;;;;6.53;63.85;101500.25;6341149;22;45555;-80
2022/01/08 04:25:40;;;;;;;;;2.50;1.50;;;;;6.55;63.44;101497.63;6342013;22;45718;-80
2022/01/08 04:28:05;;;;;;;;;2.00;0.75;;;;;6.57;63.80;101492.41;6342024;22;45377;-80
2022/01/08 04:30:30;;;;;;;;;3.25;2.00;;;;;6.56;64.15;101493.28;6341919;22;45254;-81
2022/01/08 04:32:56;;;;;;;;;3.00;2.00;;;;;6.57;63.55;101489.81;6341326;22;45370;-81
2022/01/08 04:35:21;;;;;;;;;3.25;2.75;;;;;6.56;64.10;101483.72;6341641;22;45385;-82
2022/01/08 04:37:47;;;;;;;;;2.75;2.75;;;;;6.57;64.45;101487.19;6341747;22;45531;-82
2022/01/08 04:40:12;;;;;;;;;2.25;1.50;;;;;6.56;64.18;101482.84;6341884;22;45295;-82
2022/01/08 04:42:38;;;;;;;;;1.00;1.00;;;;;6.57;64.33;101481.97;6341741;22;46186;-82
2022/01/08 04:45:03;;;;;;;;;2.00;2.00;;;;;6.58;64.61;101483.69;6341792;22;45277;-81
2022/01/08 04:47:29;;;;;;;;;2.00;1.00;;;;;6.61;64.27;101481.06;6341725;22;45162;-82
2022/01/08 04:49:55;;;;;;;;;2.00;1.00;;;;;6.59;64.47;101475.84;6339689;22;45224;-82
2022/01/08 04:52:20;;;;;;;;;3.00;1.00;;;;;6.65;64.43;101482.78;6339846;22;46045;-80
2022/01/08 04:54:45;;;;;;;;;1.00;1.00;;;;;6.59;64.66;101485.44;6340978;22;45204;-82
2022/01/08 04:57:11;;;;;;;;;1.00;1.00;;;;;6.56;64.52;101494.16;6312567;22;45389;-80
2022/01/08 04:59:36;;;;;;;;;2.00;2.00;;;;;6.61;64.79;101509.81;6341098;22;45387;-80
2022/01/08 05:02:02;;;;;;;;;1.00;1.00;;;;;6.60;64.68;101502.84;6340572;22;45286;-80
2022/01/08 05:04:27;;;;;;;;;1.00;1.00;;;;;6.61;64.44;101515.03;6341115;22;45234;-80
2022/01/08 05:06:52;;;;;;;;;1.00;1.00;;;;;6.66;64.77;101518.50;6340913;22;45581;-80
2022/01/08 05:09:18;;;;;;;;;1.00;1.00;;;;;6.66;64.74;101522.84;6341536;22;45246;-80
2022/01/08 05:11:43;;;;;;;;;5.75;1.75;;;;;6.66;64.62;101521.13;6341712;22;46492;-80
2022/01/08 05:14:10;;;;;;;;;2.00;1.00;;;;;6.68;65.38;101513.25;6340762;22;45364;-80
2022/01/08 05:16:35;;;;;;;;;2.00;0.00;;;;;6.75;65.44;101525.41;6340403;22;45397;-80
2022/01/08 05:19:01;;;;;;;;;2.00;2.00;;;;;6.74;64.93;101519.31;6340898;22;45261;-80
2022/01/08 05:21:30;;;;;;;;;0.50;0.50;;;;;6.78;65.18;101509.75;6312741;22;46025;-80
2022/01/08 05:23:57;;;;;;;;;4.25;1.00;;;;;6.84;65.36;101508.84;6340711;22;45100;-80
2022/01/08 05:26:25;;;;;;;;;1.75;1.00;;;;;6.89;65.23;101511.44;6341174;22;45432;-82
2022/01/08 05:28:51;;;;;;;;;1.25;1.25;;;;;6.89;65.05;101512.28;6340489;22;45463;-81
2022/01/08 05:31:19;;;;;;;;;2.00;2.00;;;;;6.95;65.50;101522.72;6340561;22;46264;-81
2022/01/08 05:33:44;;;;;;;;;1.25;1.00;;;;;6.95;65.24;101514.88;6340168;22;45168;-81
2022/01/08 05:36:10;;;;;;;;;2.50;0.75;;;;;7.04;65.25;101515.69;6341700;22;45160;-81
2022/01/08 05:38:36;;;;;;;;;0.00;0.00;;;;;7.04;64.99;101502.63;6340955;22;45236;-81
2022/01/08 05:41:02;;;;;;;;;1.00;1.00;;;;;7.09;65.21;101501.72;6312377;22;47937;-81
2022/01/08 05:43:27;;;;;;;;;4.50;2.25;;;;;7.13;65.30;101499.09;6340474;22;45161;-81
2022/01/08 05:45:53;;;;;;;;;2.75;1.75;;;;;7.09;65.10;101486.03;6340270;22;45287;-81
2022/01/08 05:48:18;;;;;;;;;1.75;1.75;;;;;7.14;65.03;101491.25;6311523;22;45364;-81
2022/01/08 05:50:43;;;;;;;;;1.00;1.00;;;;;7.16;65.54;101488.63;6341106;22;46245;-81
2022/01/08 05:53:09;;;;;;;;;0.50;0.50;;;;;7.20;65.38;101479.88;6341002;22;45368;-81
2022/01/08 05:55:35;;;;;;;;;1.00;1.00;;;;;7.23;65.38;101479.00;6341093;22;45273;-81
2022/01/08 05:58:00;;;;;;;;;0.25;0.25;;;;;7.27;65.79;101472.84;6340396;22;45321;-81
2022/01/08 06:00:25;;;;;;;;;4.00;1.00;;;;;7.30;65.33;101463.25;6339470;22;46254;-81
2022/01/08 06:02:51;;;;;;;;;5.25;1.75;;;;;7.32;65.71;101468.47;6340314;22;45279;-81
2022/01/08 06:05:16;;;;;;;;;1.00;1.00;;;;;7.39;65.35;101470.16;6340999;22;45559;-82
2022/01/08 06:07:41;;;;;;;;;2.75;1.00;;;;;7.38;65.60;101473.63;6341048;22;45361;-81
2022/01/08 06:10:07;;;;;;;;;1.25;1.00;;;;;7.42;65.78;101474.50;6312644;22;46150;-80
2022/01/08 06:12:33;;;;;;;;;3.25;2.00;;;;;7.43;65.15;101484.94;6340963;22;45159;-80
2022/01/08 06:14:58;;;;;;;;;3.50;2.50;;;;;7.46;65.45;101484.03;6341368;22;45180;-89
2022/01/08 06:20:05;;;;;;;;;2.00;2.00;;;;;7.50;65.41;101488.38;6181381;23;45728;-94
2022/01/08 06:22:30;;;;;;;;;1.75;1.75;;;;;7.51;64.99;101486.63;6155011;23;45133;-96
2022/01/08 06:27:37;;;;;;;;;2.75;2.00;;;;;7.50;64.97;101474.44;6182005;22;45262;-90
2022/01/08 06:30:03;;;;;;;;;2.00;2.00;;;;;7.50;65.02;101466.59;6181289;23;45337;-90
2022/01/08 06:32:29;;;;;;;;;3.25;2.50;;;;;7.49;65.49;101459.59;6180428;22;45211;-89
2022/01/08 06:34:54;;;;;;;;;3.50;2.50;;;;;7.48;65.17;101455.28;6181030;23;45230;-84
2022/01/08 06:37:20;;;;;;;;;1.00;1.00;;;;;7.46;64.98;101460.50;6179413;23;45357;-83
2022/01/08 06:39:45;;;;;;;;;3.00;1.75;;;;;7.48;65.13;101465.72;6181365;23;46536;-82
2022/01/08 06:42:11;;;;;;;;;1.00;1.00;;;;;7.49;65.39;101475.31;6178782;23;45211;-86
2022/01/08 06:44:36;;;;;;;;;2.50;2.50;;;;;7.49;65.81;101468.31;6181153;23;45358;-89
2022/01/08 06:47:02;;;;;;;;;2.00;2.00;;;;;7.50;65.08;101462.22;6178895;23;45906;-89
2022/01/08 06:49:27;;;;;;;;;5.75;3.00;;;;;7.51;65.43;101453.47;6180931;23;45404;-91
2022/01/08 06:51:53;;;;;;;;;2.25;1.50;;;;;7.53;65.20;101450.88;6180306;23;45371;-90
2022/01/08 06:54:18;;;;;;;;;3.75;1.25;;;;;7.52;65.56;101444.75;6179103;23;45277;-89
2022/01/08 06:56:44;;;;;;;;;5.75;2.50;;;;;7.53;65.39;101445.63;6180879;23;45340;-86
2022/01/08 06:59:09;;;;;;;;;3.75;2.75;;;;;7.53;65.58;101448.25;6179012;23;48486;-86
2022/01/08 07:01:34;;;;;;;;;3.75;2.00;;;;;7.54;65.32;101452.59;6181133;23;45372;-90
2022/01/08 07:04:01;;;;;;;;;4.25;3.25;;;;;7.54;65.42;101447.34;6179000;23;45358;-86
2022/01/08 07:06:27;;;;;;;;;3.00;1.00;;;;;7.57;65.28;101451.69;6178841;23;46292;-87
2022/01/08 07:08:53;;;;;;;;;2.25;2.00;;;;;7.57;65.50;101454.31;6179054;23;47907;-85
2022/01/08 07:11:18;;;;;;;;;2.00;1.00;;;;;7.57;65.61;101449.09;6180806;22;45676;-86
2022/01/08 07:13:44;;;;;;;;;3.00;3.00;;;;;7.57;65.33;101444.72;6181352;23;45201;-86
2022/01/08 07:16:09;;;;;;;;;7.00;2.00;;;;;7.58;65.63;101442.97;6181178;23;45222;-87
2022/01/08 07:18:34;;;;;;;;;2.50;2.50;;;;;7.59;65.61;101435.09;6180772;22;45211;-86
2022/01/08 07:21:00;;;;;;;;;1.25;1.25;;;;;7.60;65.58;101433.38;6178566;23;45223;-86
2022/01/08 07:23:25;;;;;;;;;3.75;2.25;;;;;7.59;65.27;101422.03;6178597;23;45101;-86
2022/01/08 07:25:51;;;;;;;;;2.50;2.00;;;;;7.61;65.37;101425.50;6180619;22;45221;-87
2022/01/08 07:28:16;;;;;;;;;2.25;2.00;;;;;7.61;65.53;101428.09;6180941;23;45436;-90
2022/01/08 07:30:42;;;;;;;;;4.50;2.25;;;;;7.54;65.07;101427.31;6181104;23;45176;-91
2022/01/08 07:33:07;;;;;;;;;3.00;2.75;;;;;7.54;65.75;101422.06;6180695;23;45162;-86
2022/01/08 07:35:33;;;;;;;;;1.75;1.75;;;;;7.53;65.94;101409.84;6180691;23;45419;-86
2022/01/08 07:37:59;;;;;;;;;5.50;3.25;;;;;7.52;65.55;101399.41;6153706;23;47006;-84
2022/01/08 07:40:24;;;;;;;;;4.00;2.75;;;;;7.56;66.03;101393.25;6181068;23;45275;-84
2022/01/08 07:42:51;;;;;;;;;3.25;3.00;;;;;7.58;66.17;101396.72;6154262;23;45296;-84
2022/01/08 07:45:18;;;;;;;;;5.00;2.00;;;;;7.62;65.88;101397.59;6153295;23;47095;-84
2022/01/08 07:47:44;;;;;;;;;4.25;4.00;;;;;7.65;65.79;101392.31;6179885;23;45286;-83
2022/01/08 07:50:10;;;;;;;;;3.25;3.25;;;;;7.69;66.08;101393.16;6179951;23;45726;-79
2022/01/08 07:52:35;;;;;;;;;3.25;3.25;;;;;7.75;66.36;101395.72;6178095;23;45429;-79
2022/01/08 07:55:01;;;;;;;;;4.25;2.25;;;;;7.81;66.28;101398.25;6176101;23;45555;-79
2022/01/08 07:57:27;;;;;;;;;3.00;3.00;;;;;7.80;65.54;101401.78;6176900;23;45489;-78
2022/01/08 07:59:52;;;;;;;;;2.75;2.75;;;;;7.81;65.97;101400.88;6178066;23;45387;-78
2022/01/08 08:02:18;;;;;;;;;2.00;2.00;;;;;7.85;66.16;101402.56;6179005;23;45223;-78
2022/01/08 08:04:43;;;;;;;;;1.00;1.00;;;;;7.88;65.81;101388.56;6178736;23;45346;-78
2022/01/08 08:07:09;;;;;;;;;5.00;3.00;;;;;7.90;66.13;101385.97;6179181;23;46207;-78
2022/01/08 08:09:34;;;;;;;;;4.00;3.50;;;;;7.89;65.96;101377.22;6179044;23;45746;-78
2022/01/08 08:11:59;;;;;;;;;7.75;5.75;;;;;7.88;65.83;101378.09;6179620;23;45405;-78
2022/01/08 08:14:25;;;;;;;;;5.00;5.00;;;;;7.90;66.18;101370.25;6179353;23;45643;-78
2022/01/08 08:16:50;;;;;;;;;8.50;4.25;;;;;7.91;65.98;101366.72;6151633;23;47055;-78
2022/01/08 08:19:16;;;;;;;;;4.25;4.00;;;;;7.93;66.32;101364.97;6179185;23;45382;-78
2022/01/08 08:21:42;;;;;;;;;8.00;6.25;;;;;7.94;66.53;101353.63;6179707;23;45733;-78
2022/01/08 08:24:07;;;;;;;;;5.50;4.00;;;;;7.93;65.99;101359.72;6179895;23;45530;-78
2022/01/08 08:26:34;;;;;;;;;8.00;5.00;;;;;7.90;66.45;101358.03;6179600;22;46048;-78
2022/01/08 08:28:59;;;;;;;;;5.00;4.00;;;;;7.94;66.87;101364.09;6178794;23;45245;-79
2022/01/08 08:31:25;;;;;;;;;5.25;5.00;;;;;7.95;66.85;101355.38;6179618;23;45612;-79
2022/01/08 08:33:50;;;;;;;;;6.50;4.25;;;;;7.99;67.02;101349.19;6179065;23;45220;-79
2022/01/08 08:36:16;;;;;;;;;5.00;3.00;;;;;8.02;66.58;101343.94;6178987;23;45720;-78
2022/01/08 08:38:42;;;;;;;;;5.00;4.00;;;;;8.05;67.13;101341.25;6179525;23;45220;-79
2022/01/08 08:41:07;;;;;;;;;7.50;3.25;;;;;8.08;66.97;101343.84;6179842;23;45248;-80
2022/01/08 08:43:32;;;;;;;;;6.00;4.25;;;;;8.09;67.37;101329.88;6179505;23;45341;-80
2022/01/08 08:45:58;;;;;;;;;4.00;4.00;;;;;8.12;67.16;101320.25;6182534;23;45198;-80
2022/01/08 08:48:23;;;;;;;;;8.00;5.00;;;;;8.13;67.55;101322.81;6181236;23;45465;-81
2022/01/08 08:50:49;;;;;;;;;6.75;6.00;;;;;8.15;67.16;101328.06;6181405;23;45299;-80
2022/01/08 08:53:14;;;;;;;;;6.75;4.75;;;;;8.19;67.26;101321.91;6180377;23;45264;-80
2022/01/08 08:55:39;;;;;;;;;6.75;4.50;;;;;8.20;67.42;101321.88;6181721;23;45366;-80
2022/01/08 08:58:05;;;;;;;;;8.75;6.50;;;;;8.21;67.86;101309.63;6181369;23;45224;-80
2022/01/08 09:00:30;;;;;;;;;6.25;6.25;;;;;8.24;67.60;101300.88;6182001;23;45280;-80
2022/01/08 09:02:56;;;;;;;;;7.75;7.75;;;;;8.22;67.58;101304.38;6181442;23;45341;-80
2022/01/08 09:05:21;;;;;;;;;6.50;5.00;;;;;8.22;68.06;101299.13;6181854;23;45242;-81
2022/01/08 09:07:46;;;;;;;;;6.75;6.50;;;;;8.24;67.72;101304.38;6181794;23;45275;-81
2022/01/08 09:10:13;;;;;;;;;7.00;6.00;;;;;8.25;67.91;101306.06;6181900;23;45162;-81
2022/01/08 09:12:40;;;;;;;;;8.75;8.75;;;;;8.30;67.88;101306.00;6181902;23;45243;-81
2022/01/08 09:15:08;;;;;;;;;6.50;5.25;;;;;8.37;67.98;101291.94;6182175;23;45197;-81
2022/01/08 09:17:35;;;;;;;;;9.00;7.75;;;;;8.38;67.82;101293.69;6181039;23;45271;-81
2022/01/08 09:20:03;;;;;;;;;9.00;7.75;;;;;8.40;68.40;101291.91;6181775;23;45409;-81
2022/01/08 09:22:29;;;;;;;;;10.75;9.25;;;;;8.39;68.09;101287.56;6181851;23;45178;-81
2022/01/08 09:24:56;;;;;;;;;11.25;10.50;;;;;8.39;68.06;101286.69;6181764;23;45299;-81
2022/01/08 09:27:23;;;;;;;;;10.50;7.25;;;;;8.43;68.52;101264.78;6181825;22;45236;-82
2022/01/08 09:29:48;;;;;;;;;10.25;8.00;;;;;8.50;68.01;101265.56;6181503;23;45491;-80
2022/01/08 09:32:14;;;;;;;;;16.00;11.50;;;;;8.50;68.58;101265.56;6181429;23;45337;-80
2022/01/08 09:34:40;;;;;;;;;13.75;9.00;;;;;8.52;69.06;101263.81;6181481;23;45473;-80
2022/01/08 09:37:06;;;;;;;;;11.75;8.75;;;;;8.53;69.05;101274.25;6181799;23;45348;-80
2022/01/08 09:39:31;;;;;;;;;12.00;8.50;;;;;8.58;68.98;101274.22;6182288;23;45331;-80
2022/01/08 09:41:57;;;;;;;;;11.50;9.25;;;;;8.60;68.81;101264.56;6181871;23;45283;-80
2022/01/08 09:44:23;;;;;;;;;10.25;8.25;;;;;8.63;68.97;101263.66;6181891;23;45300;-80
2022/01/08 09:46:48;;;;;;;;;9.00;8.00;;;;;8.71;69.13;101258.28;6182254;23;45655;-80
2022/01/08 09:49:13;;;;;;;;;8.00;7.25;;;;;8.76;69.25;101252.09;6181875;23;45217;-80
2022/01/08 09:51:39;;;;;;;;;12.75;9.00;;;;;8.78;69.09;101250.28;6181816;23;45098;-80
2022/01/08 09:54:05;;;;;;;;;18.75;13.75;;;;;8.88;69.27;101248.38;6181852;23;45564;-80
2022/01/08 09:56:32;;;;;;;;;15.75;13.00;;;;;8.88;69.34;101234.41;6181450;23;45674;-80
2022/01/08 09:58:59;;;;;;;;;10.25;9.75;;;;;8.94;68.74;101228.19;6181922;23;45093;-80
2022/01/08 10:01:32;;;;;;;;;10.25;9.00;;;;;8.96;69.35;101224.63;6181246;23;45429;-80
2022/01/08 10:04:00;;;;;;;;;11.50;10.00;;;;;9.04;69.05;101231.50;6181263;23;45409;-81
2022/01/08 10:06:28;;;;;;;;;15.75;11.50;;;;;9.06;69.28;101217.44;6181516;23;45805;-80
2022/01/08 10:08:55;;;;;;;;;9.25;8.75;;;;;9.06;69.04;101206.13;6181560;23;45202;-80
2022/01/08 10:11:22;;;;;;;;;9.25;9.25;;;;;9.11;69.37;101194.63;6181721;23;45172;-80
2022/01/08 10:13:51;;;;;;;;;14.75;11.00;;;;;9.15;69.50;101190.19;6181512;23;46128;-81
2022/01/08 10:19:15;;;;;;;;;15.00;11.75;;;;;9.17;69.85;101183.16;6180993;23;45417;-81
2022/01/08 10:21:43;;;;;;;;;12.00;11.00;;;;;9.20;69.92;101177.84;6181484;23;45326;-80
2022/01/08 10:24:08;;;;;;;;;18.75;11.25;;;;;9.25;69.96;101174.28;6181023;23;46385;-80
2022/01/08 10:26:37;;;;;;;;;11.25;10.75;;;;;9.30;69.95;101173.28;6180900;22;45362;-80
2022/01/08 10:29:13;;;;;;;;;17.25;10.75;;;;;9.33;70.03;101167.13;6181558;23;45283;-80
2022/01/08 10:31:41;;;;;;;;;8.00;8.00;;;;;9.37;69.89;101166.16;6181629;23;45422;-80
2022/01/08 10:34:13;;;;;;;;;11.75;11.00;;;;;9.42;69.99;101164.28;6180237;23;45986;-80
2022/01/08 10:36:39;;;;;;;;;14.50;9.50;;;;;9.49;70.01;101158.91;6181217;23;45287;-80
2022/01/08 10:39:11;;;;;;;;;17.50;13.50;;;;;9.53;70.18;101163.22;6181362;23;45275;-80
2022/01/08 10:41:42;;;;;;;;;17.50;9.50;;;;;9.57;70.18;101152.59;6180983;23;45431;-80
2022/01/08 10:44:21;;;;;;;;;15.00;9.25;;;;;9.62;70.21;101149.00;6181058;23;46961;-80
2022/01/08 10:46:55;;;;;;;;;12.00;8.25;;;;;9.67;70.11;101147.16;6181142;23;45264;-80
2022/01/08 10:49:35;;;;;;;;;9.75;9.00;;;;;9.68;70.33;101131.34;6181205;23;45434;-80
2022/01/08 10:52:06;;;;;;;;;11.00;7.75;;;;;9.70;70.50;101128.72;6180922;23;45160;-80
2022/01/08 10:54:34;;;;;;;;;6.00;6.00;;;;;9.73;70.04;101128.63;6181187;23;45613;-80
2022/01/08 10:57:02;;;;;;;;;10.50;5.50;;;;;9.73;70.46;101112.03;6181367;23;45191;-80
2022/01/08 10:59:30;;;;;;;;;9.00;7.00;;;;;9.78;70.60;101110.13;6181251;23;45246;-80
2022/01/08 11:02:00;;;;;;;;;6.00;6.00;;;;;9.83;70.42;101105.63;6181050;23;45426;-80
2022/01/08 11:04:50;;;;;;;;;10.00;7.75;;;;;9.84;70.68;101099.50;6180700;23;46136;-80
2022/01/08 11:07:20;;;;;;;;;10.50;8.75;;;;;9.83;71.17;101081.16;6180680;23;45776;-80
2022/01/08 11:09:47;;;;;;;;;14.00;8.50;;;;;9.81;71.31;101069.81;6181484;23;45173;-80
2022/01/08 11:12:17;;;;;;;;;10.00;6.50;;;;;9.84;70.95;101065.38;6180851;23;45196;-78
2022/01/08 11:14:49;;;;;;;;;13.00;7.00;;;;;9.88;70.70;101066.13;6153931;23;46251;-79
2022/01/08 11:17:26;;;;;;;;;14.75;7.25;;;;;9.88;71.17;101048.63;6180481;23;45618;-78
2022/01/08 11:19:55;;;;;;;;;7.00;6.00;;;;;9.87;71.00;101046.94;6180442;23;45240;-78
2022/01/08 11:22:23;;;;;;;;;10.00;6.50;;;;;9.87;70.94;101032.94;6180372;23;45434;-78
2022/01/08 11:24:58;;;;;;;;;7.00;5.25;;;;;9.88;70.71;101024.13;6179872;23;46074;-79
2022/01/08 11:27:37;;;;;;;;;8.25;5.25;;;;;9.93;70.86;101027.50;6180370;22;45292;-79
2022/01/08 11:30:16;;;;;;;;;6.25;5.25;;;;;9.96;70.78;101014.31;6181037;23;45253;-78
2022/01/08 11:32:42;;;;;;;;;12.75;7.50;;;;;9.97;70.76;101015.16;6180431;23;45328;-78
2022/01/08 11:35:10;;;;;;;;;8.25;7.00;;;;;9.99;70.54;101008.97;6180583;23;45215;-78
2022/01/08 11:37:36;;;;;;;;;10.00;5.25;;;;;10.02;71.18;101005.41;6180410;23;45366;-78
2022/01/08 11:40:07;;;;;;;;;10.25;7.00;;;;;10.02;71.02;100997.53;6181050;23;45295;-78
2022/01/08 11:42:35;;;;;;;;;15.00;6.00;;;;;10.06;71.09;100993.91;6180861;23;45422;-78
2022/01/08 11:45:03;;;;;;;;;10.00;7.00;;;;;10.07;71.10;100979.91;6180246;23;45685;-78
2022/01/08 11:47:29;;;;;;;;;9.00;5.50;;;;;10.10;71.10;100969.28;6153718;23;45273;-78
2022/01/08 11:49:58;;;;;;;;;8.00;6.00;;;;;10.13;70.72;100961.31;6180979;23;45297;-78
2022/01/08 11:52:24;;;;;;;;;8.25;6.75;;;;;10.15;71.15;100948.13;6154316;22;46320;-78
2022/01/08 11:54:52;;;;;;;;;7.00;6.25;;;;;10.14;71.06;100930.69;6180981;23;45399;-78